AirNav   Pilot Hours Calculator
 
 452 users online  

13GE Holt Airpark
Oak Park, Georgia, USA

GOING TO OAK PARK?


FAA INFORMATION EFFECTIVE 17 JUNE 2021

Location

FAA Identifier: 13GE
Lat/Long: 32-21-39.0000N 082-19-05.0000W
32-21.650000N 082-19.083333W
32.3608333,-82.3180556
(estimated)
Elevation: 280 ft. / 85 m (estimated)
From city: 1 mile W of OAK PARK, GA
Time zone: UTC -4 (UTC -5 during Standard Time)
Zip code: 30474

Airport Operations

Airport use: Private use. Permission required prior to landing
Activation date: 09/2004
Control tower: no
ARTCC: ATLANTA CENTER
FSS: MACON FLIGHT SERVICE STATION
Attendance: 0900-1700
Segmented circle: no

Airport Communications

WX AWOS-3 at VDI (10 nm S): 119.925 (912-538-0219)
WX AWOS-3PT at MHP (12 nm E): 120.3 (912-685-2729)
WX AWOS-3 at SBO (15 nm N): 133.375 (478-237-8437)
WX AWOS-3PT at RVJ (20 nm SE): 128.325 (912-557-0011)

Nearby radio navigation aids

VOR radial/distance  VOR name  Freq  Var
DBNr120/28.6DUBLIN VORTAC113.1005W

 
NDB name  Hdg/Dist  Freq  Var  ID
ONYUN359/8.337206WUQN ..- --.- -.
EMANUEL COUNTY166/19.630906WEEX . . -..-
MC RAE064/32.728003WMQW -- --.- .--
HAZLEHURST036/33.441406WAZE .- --.. .
BAXLEY011/39.137606WBHC -... .... -.-.

Airport Services

Runway Information

Runway 11/29

Dimensions: 2600 x 60 ft. / 792 x 18 m
Surface: turf
RUNWAY 11  RUNWAY 29
Traffic pattern: leftleft

Airport Ownership and Management from official FAA records

Ownership: Privately-owned
Owner: JERRY HOLT
130 ROSIE POWELL ROAD
LYONS, GA 30436
Phone 912-578-3211
Manager: JOY HOLT
130 ROSIE POWELL ROAD
LYONS, GA 30436
Phone 912-578-3211

Airport Operational Statistics

Aircraft based on the field: 1
Single engine airplanes: 1
    

Additional Remarks

50 FT TREES ALL QUADRANTS.
FOR CD CTC ATLANTA ARTCC AT 770-210-7692.

Instrument Procedures

There are no published instrument procedures at 13GE.

Some nearby airports with instrument procedures:

KVDI - Vidalia Regional Airport (10 nm S)
KMHP - Metter Municipal Airport (12 nm E)
KSBO - East Georgia Regional Airport (15 nm N)
KRVJ - Swinton Smith Field at Reidsville Municipal Airport (20 nm SE)
KCWV - Claxton-Evans County Airport (25 nm SE)
 
Loc | Ops | Rwys | IFR | FBO | Links
Com | Nav | Svcs | Stats | Notes
Area around 13GE (Holt Airpark)
 
Road maps at: MapQuest Bing Google
 
Aerial photo
No photo
 
Sectional chart

 
Airport distance calculator
Flying to Holt Airpark? Find the distance to fly.

From to 13GE

Sunrise and sunset
Times for 17-Jun-2021
 Local
(UTC-4)
 Zulu
(UTC)
Morning civil twilight05:5509:55
Sunrise06:2310:23
Sunset20:3700:37
Evening civil twilight21:0601:06

Current date and time
Zulu (UTC)  17-Jun-2021 10:04:32
Local (UTC-4)  17-Jun-2021 06:04:32
 
METAR
KVDI 
10nm S 
170955Z AUTO 00000KT 10SM CLR 20/18 A2997 RMK AO2
KMHP 
12nm E 
170955Z AUTO 00000KT 10SM CLR 19/ A2997 RMK AO2 T0189////
KSBO 
15nm N 
170955Z AUTO 00000KT 10SM CLR 18/16 A2999 RMK AO2
KRVJ 
20nm SE 
170955Z AUTO 00000KT 5SM BR CLR 18/18 A2997 RMK AO2 T01850180
TAF
NOTAMs
Click for the latest NOTAMs
NOTAMs are issued by the DoD/FAA and will open in a separate window not controlled by AirNav.

 

 
 

Would you like to see your business listed on this page?

 If your business provides an interesting product or service to pilots, flight crews, aircraft, or users of the Holt Airpark, you should consider listing it here.  To start the listing process, click on the button below
 
Add a business
 

Other Pages about Holt Airpark

Update a link
 
Copyright © AirNav, LLC. All rights reserved. Privacy Policy  Contact